Meteorología y climatología de Navarra
Datos de la estación - Meteo Navarra

Estación de Etxarri-Aranatz GN

Altitud 505 m.


Datos desde el 03/12/2019 hasta el 04/12/2019 en horario solar
Los datos son PROVISIONALES

Anterior Página 1 de 1 Siguiente Descargar: Formato para Excel 2000 o superior   Formato csv   Formato para OpenOffice Calc
Fecha Temperatura Humedad relativa Radiación global Insolación Precipitación Vel. viento 10 m Vel. viento 10 m Dir. viento 10 m
ºC % W/m² s l/m² m/s km/h º
03/12/2019 0:00 3.3 89 0.0 0 0.0 1.5 5.3 286
03/12/2019 0:10 3.2 89 0.0 0 0.1 1.3 4.6 291
03/12/2019 0:20 3.2 89 0.0 0 0.1 1.1 3.9 276
03/12/2019 0:30 3.1 91 0.0 0 0.1 0.9 3.1 289
03/12/2019 0:40 3.1 90 0.0 0 0.0 1.0 3.4 289
03/12/2019 0:50 3.1 91 0.0 0 0.1 1.3 4.8 286
03/12/2019 1:00 3.0 91 0.0 0 0.1 1.6 5.7 289
03/12/2019 1:10 2.9 91 0.0 0 0.0 1.6 5.7 281
03/12/2019 1:20 2.8 92 0.0 0 0.1 1.9 6.9 277
03/12/2019 1:30 2.8 92 0.0 0 0.1 1.7 6.1 277
03/12/2019 1:40 2.9 92 0.0 0 0.0 1.8 6.4 290
03/12/2019 1:50 3.0 91 0.0 0 0.1 1.3 4.6 288
03/12/2019 2:00 2.9 90 0.0 0 0.0 1.4 4.9 319
03/12/2019 2:10 3.1 90 0.0 0 0.1 0.3 1.2 50
03/12/2019 2:20 2.9 91 0.0 0 0.0 0.6 2.2 94
03/12/2019 2:30 2.8 92 0.0 0 0.0 0.6 2.3 200
03/12/2019 2:40 2.7 93 0.0 0 0.0 0.6 2.3 246
03/12/2019 2:50 2.7 93 0.0 0 0.0 0.3 1.1 268
03/12/2019 3:00 2.8 93 0.0 0 0.1 0.7 2.3 315
03/12/2019 3:10 2.8 92 0.0 0 0.0 0.7 2.6 246
03/12/2019 3:20 2.8 93 0.0 0 0.0 0.6 2.3 218
03/12/2019 3:30 2.8 93 0.0 0 0.0 1.2 4.3 252
03/12/2019 3:40 2.8 93 0.0 0 0.0 1.1 3.9 267
03/12/2019 3:50 2.8 93 0.0 0 0.0 2.1 7.5 263
03/12/2019 4:00 2.8 93 0.0 0 0.0 1.0 3.6 294
03/12/2019 4:10 2.9 91 0.0 0 0.0 1.2 4.2 315
03/12/2019 4:20 3.0 88 0.0 0 0.0 1.2 4.4 308
03/12/2019 4:30 3.0 87 0.0 0 0.0 0.6 2.3 305
03/12/2019 4:40 3.0 88 0.0 0 0.0 0.7 2.4 293
03/12/2019 4:50 2.9 89 0.0 0 0.0 1.1 4.1 287
03/12/2019 5:00 2.8 89 0.0 0 0.0 1.7 6.0 288
03/12/2019 5:10 2.8 90 0.0 0 0.0 1.4 4.9 287
03/12/2019 5:20 2.7 90 0.0 0 0.0 1.2 4.5 294
03/12/2019 5:30 2.8 90 0.0 0 0.0 0.8 2.8 300
03/12/2019 5:40 2.8 89 0.0 0 0.0 0.9 3.2 313
03/12/2019 5:50 2.9 87 0.0 0 0.0 1.1 4.1 295
03/12/2019 6:00 2.9 88 0.0 0 0.0 1.0 3.6 283
03/12/2019 6:10 2.8 88 0.0 0 0.0 0.8 2.9 272
03/12/2019 6:20 2.8 89 0.0 0 0.0 1.5 5.4 273
03/12/2019 6:30 2.8 88 0.0 0 0.0 1.6 5.7 277
03/12/2019 6:40 2.7 88 0.0 0 0.0 1.6 5.9 283
03/12/2019 6:50 2.8 88 0.0 0 0.0 1.4 5.0 280
03/12/2019 7:00 2.6 88 0.0 0 0.0 1.5 5.3 264
03/12/2019 7:10 2.5 89 0.0 0 0.0 1.5 5.3 274
03/12/2019 7:20 2.5 89 0.0 0 0.0 1.5 5.4 280
03/12/2019 7:30 2.4 89 0.0 0 0.0 1.4 5.0 282
03/12/2019 7:40 2.4 90 0.0 0 0.0 1.2 4.4 275
03/12/2019 7:50 2.6 90 3.8 0 0.0 1.2 4.2 282
03/12/2019 8:00 2.8 89 20.7 0 0.1 1.1 4.1 282
03/12/2019 8:10 2.9 88 30.7 0 0.0 0.6 2.2 285
03/12/2019 8:20 3.0 88 44.6 0 0.0 1.0 3.7 318
03/12/2019 8:30 3.2 85 45.6 0 0.0 2.4 8.5 324
03/12/2019 8:40 3.2 85 54.4 0 0.0 1.7 6.0 318
03/12/2019 8:50 3.4 84 62.3 0 0.0 1.6 5.8 319
03/12/2019 9:00 3.5 82 81.7 0 0.0 1.5 5.4 316
03/12/2019 9:10 3.7 80 114.1 94 0.1 1.7 6.2 321
03/12/2019 9:20 3.9 79 130.5 188 0.1 1.5 5.3 321
03/12/2019 9:30 4.0 79 114.5 0 0.1 1.1 3.9 316
03/12/2019 9:40 4.0 78 152.4 100 0.0 1.3 4.8 324
03/12/2019 9:50 4.2 78 140.0 0 0.1 1.3 4.8 326
03/12/2019 10:00 4.3 77 146.2 0 0.1 1.4 5.0 316
03/12/2019 10:10 4.4 77 138.9 0 0.0 1.6 5.8 345
03/12/2019 10:20 4.3 77 144.8 0 0.1 1.1 3.9 321
03/12/2019 10:30 4.3 76 190.5 122 0.0 1.8 6.4 311
03/12/2019 10:40 4.4 75 145.8 0 0.0 1.3 4.7 335
03/12/2019 10:50 4.6 74 132.2 0 0.0 1.3 4.6 357
03/12/2019 11:00 4.7 72 123.0 0 0.0 0.8 2.9 358
03/12/2019 11:10 4.8 72 111.8 0 0.0 0.9 3.2 354
03/12/2019 11:20 4.7 71 129.3 0 0.0 0.9 3.3 0
03/12/2019 11:30 4.9 72 120.8 0 0.0 1.2 4.3 10
03/12/2019 11:40 5.0 74 107.6 0 0.0 1.2 4.4 52
03/12/2019 11:50 4.9 73 91.4 0 0.0 1.2 4.4 55
03/12/2019 12:00 4.8 74 98.9 0 0.0 1.4 5.2 69
03/12/2019 12:10 4.8 74 101.9 0 0.0 1.3 4.6 25
03/12/2019 12:20 4.6 74 131.5 0 0.0 0.9 3.1 32
03/12/2019 12:30 4.9 74 147.3 0 0.0 1.0 3.7 38
03/12/2019 12:40 5.1 75 181.3 0 0.0 1.8 6.6 80
03/12/2019 12:50 5.4 76 180.4 0 0.0 2.4 8.5 78
03/12/2019 13:00 5.4 75 174.3 0 0.0 1.8 6.5 86
03/12/2019 13:10 5.7 74 170.7 0 0.0 1.6 5.8 78
03/12/2019 13:20 5.6 73 174.3 0 0.0 1.7 6.0 87
03/12/2019 13:30 5.6 73 160.1 0 0.0 1.5 5.4 79
03/12/2019 13:40 5.4 73 159.0 0 0.0 1.6 5.7 85
03/12/2019 13:50 5.4 73 152.6 0 0.0 1.0 3.5 67
03/12/2019 14:00 5.5 73 146.7 0 0.0 1.0 3.5 71
03/12/2019 14:10 5.4 71 136.2 0 0.0 0.5 1.7 56
03/12/2019 14:20 5.0 70 135.6 0 0.0 0.2 0.5 348
03/12/2019 14:30 4.9 70 128.4 0 0.0 0.6 2.0 307
03/12/2019 14:40 4.8 70 125.8 0 0.0 0.8 2.7 316
03/12/2019 14:50 4.8 70 88.3 0 0.0 0.3 1.1 304
03/12/2019 15:00 4.7 72 59.2 0 0.0 0.9 3.3 225
03/12/2019 15:10 4.6 75 50.9 0 0.0 1.0 3.5 226
03/12/2019 15:20 4.3 77 51.1 2 0.0 0.8 2.9 199
03/12/2019 15:30 4.3 77 83.9 246 0.0 0.3 1.1 224
03/12/2019 15:40 4.7 76 93.9 564 0.0 0.3 1.0 243
03/12/2019 15:50 5.0 72 77.8 544 0.0 0.3 1.1 252
03/12/2019 16:00 4.9 73 52.9 464 0.0 0.3 1.2 210
03/12/2019 16:10 4.2 77 22.7 24 0.0 0.5 1.6 169
03/12/2019 16:20 3.2 81 4.7 0 0.0 1.3 4.8 168
03/12/2019 16:30 2.4 83 0.0 0 0.0 1.0 3.4 173
03/12/2019 16:40 1.9 84 0.0 0 0.0 0.9 3.1 176
03/12/2019 16:50 1.5 86 0.0 0 0.0 0.9 3.2 183
03/12/2019 17:00 1.1 87 0.0 0 0.0 0.7 2.5 155
03/12/2019 17:10 0.9 89 0.0 0 0.0 0.3 1.1 185
03/12/2019 17:20 0.7 91 0.0 0 0.0 0.1 0.2 325
03/12/2019 17:30 0.8 92 0.0 0 0.0 0.2 0.6 334
03/12/2019 17:40 0.1 91 0.0 0 0.0 0.9 3.3 143
03/12/2019 17:50 -0.1 93 0.0 0 0.0 1.1 3.8 116
03/12/2019 18:00 -0.1 93 0.0 0 0.0 0.7 2.4 65
03/12/2019 18:10 -0.2 93 0.0 0 0.0 0.5 1.9 305
03/12/2019 18:20 -0.5 94 0.0 0 0.0 0.9 3.2 265
03/12/2019 18:30 -0.1 95 0.0 0 0.0 0.5 1.8 312
03/12/2019 18:40 -0.0 95 0.0 0 0.0 0.2 0.8 119
03/12/2019 18:50 -0.5 94 0.0 0 0.0 0.3 1.2 221
03/12/2019 19:00 -0.6 95 0.0 0 0.0 0.3 0.9 260
03/12/2019 19:10 -0.2 95 0.0 0 0.0 0.4 1.3 293
03/12/2019 19:20 -0.9 94 0.0 0 0.0 1.0 3.6 201
03/12/2019 19:30 -1.2 95 0.0 0 0.0 0.4 1.3 74
03/12/2019 19:40 -1.1 95 0.0 0 0.0 0.0 0.1 21
03/12/2019 19:50 -1.5 95 0.0 0 0.0 0.0 0.0 0
03/12/2019 20:00 -1.5 96 0.0 0 0.0 0.1 0.4 31
03/12/2019 20:10 -1.5 96 0.0 0 0.0 0.6 2.3 202
03/12/2019 20:20 -1.8 96 0.0 0 0.0 0.6 2.0 131
03/12/2019 20:30 -1.6 96 0.0 0 0.0 0.1 0.4 242
03/12/2019 20:40 -1.8 96 0.0 0 0.0 0.0 0.1 248
03/12/2019 20:50 -1.9 96 0.0 0 0.0 0.1 0.3 289
03/12/2019 21:00 -1.9 96 0.0 0 0.0 0.1 0.4 88
03/12/2019 21:10 -2.0 96 0.0 0 0.0 0.1 0.5 85
03/12/2019 21:20 -2.0 96 0.0 0 0.0 0.1 0.2 325
03/12/2019 21:30 -1.7 97 0.0 0 0.0 0.4 1.4 330
03/12/2019 21:40 -1.9 97 0.0 0 0.0 0.2 0.7 355
03/12/2019 21:50 -2.2 97 0.0 0 0.0 0.3 1.0 221
03/12/2019 22:00 -2.6 96 0.0 0 0.0 0.5 1.8 165
03/12/2019 22:10 -2.4 97 0.0 0 0.0 0.4 1.4 238
03/12/2019 22:20 -1.9 97 0.0 0 0.0 1.0 3.6 332
03/12/2019 22:30 -2.1 97 0.0 0 0.0 0.3 1.0 190
03/12/2019 22:40 -2.6 96 0.0 0 0.0 0.4 1.4 184
03/12/2019 22:50 -2.6 97 0.0 0 0.0 0.1 0.4 183
03/12/2019 23:00 -2.6 97 0.0 0 0.0 0.4 1.5 190
03/12/2019 23:10 -2.6 97 0.0 0 0.0 0.8 3.0 166
03/12/2019 23:20 -2.7 97 0.0 0 0.0 0.7 2.5 173
03/12/2019 23:30 -2.7 97 0.0 0 0.0 0.2 0.8 173
03/12/2019 23:40 -2.5 97 0.0 0 0.0 0.5 1.7 221
03/12/2019 23:50 -2.5 97 0.0 0 0.0 0.2 0.6 195
Anterior Página 1 de 1 Siguiente

NOTA: Tipo de datos según el color:
   - Valores diarios o 10 minutos correctos
   - Valores diarios calculados a partir de un número de datos 10 minutos menor que 144 y mayor que 120, o de un número de datos semihorarios menor que 48 y mayor que 40 (caso de las estaciones de Riegos de Navarra y del MARM)
   - Valores diez minutos estimados


Contacto        Enlaces        Aviso legal